Main page
METAR-TAF:

METAR-TAF

Airports :

Chlef International Airport

Chlef, Algeria

latitude: 36-13N, longitude: 001-20E, elevation: 143 m

Current weather observation

The report was made 52 minutes ago, at 22:00 UTC
Wind 4 kt from the West/Southwest
Temperature 16°C
Humidity 82%
Pressure 1025 hPa
Visibility 10 km or more
Few clouds at a height of 2600 ft

METAR: DAOI 272200Z 25004KT 9999 FEW026 16/13 Q1025

Time: 23:52 (22:52 UTC)

Forecast

The report was made 5 hours and 52 minutes ago, at 17:00 UTC
Forecast valid from 27 at 18 UTC to 28 at 18 UTC
Wind 10 kt from the West/Southwest
Visibility 10 km or more
Scattered clouds at a height of 2600 ft
Becoming
from 27 at 20 UTC to 27 at 23 UTC
Wind 2 kt from variable directions
Probability 30% :
Temporary
from 28 at 02 UTC to 28 at 10 UTC
Visibility: 2000 m
Broken clouds at a height of 1000 ft
mist

TAF: DAOI 271700Z 2718/2818 24010KT 9999 SCT026 BECMG 2720/2723 VRB02KT PROB30 TEMPO 2802/2810 2000 BR BKN010

Weather observations and forecasts of more than 4000 airports (METAR and TAF reports).

The available stations are represented by yellow and red dots on the map.

Hover mouse over dot to see the name of the station.

Then click to see weather observations and forecasts.

To change the map : click on the green buttons with a black cross to zoom in, on the green button with a dash to zoom out, or on the green arrows for adjacent maps.


METAR-TAF: